createdAt,value
2022-09-04T00:01:57.847Z,1.30
2022-09-04T00:04:38.747Z,1.10
2022-09-04T00:07:18.519Z,1.10
2022-09-04T00:10:01.245Z,1.30
2022-09-04T00:12:36.423Z,1.30
2022-09-04T00:15:13.616Z,1.30
2022-09-04T00:17:52.485Z,1.27
2022-09-04T00:20:38.168Z,1.30
2022-09-04T00:23:14.447Z,1.23
2022-09-04T00:25:53.342Z,1.33
2022-09-04T00:28:34.011Z,1.90
2022-09-04T00:31:14.775Z,1.37
2022-09-04T00:33:56.059Z,1.50
2022-09-04T00:36:29.207Z,1.67
2022-09-04T00:39:01.161Z,1.40
2022-09-04T00:41:32.255Z,1.43
2022-09-04T00:44:43.716Z,1.93
2022-09-04T00:47:35.067Z,1.83
2022-09-04T00:50:21.147Z,1.40
2022-09-04T00:53:26.678Z,1.60
2022-09-04T00:56:44.195Z,1.40
2022-09-04T00:59:27.558Z,1.70
2022-09-04T01:02:05.342Z,1.80
2022-09-04T01:04:43.123Z,1.30
2022-09-04T01:07:45.614Z,1.50
2022-09-04T01:10:29.018Z,1.57
2022-09-04T01:13:07.069Z,1.50
2022-09-04T01:15:42.802Z,1.43
2022-09-04T01:18:17.976Z,1.50
2022-09-04T01:21:23.310Z,1.10
2022-09-04T01:24:09.242Z,1.10
2022-09-04T01:26:48.859Z,1.60
2022-09-04T01:29:30.903Z,1.70
2022-09-04T01:32:10.154Z,1.87
2022-09-04T01:34:46.783Z,1.60
2022-09-04T01:37:31.531Z,1.53
2022-09-04T01:40:19.642Z,1.70
2022-09-04T01:42:55.881Z,1.43
2022-09-04T01:45:39.109Z,1.73
2022-09-04T01:48:10.408Z,2.03
2022-09-04T01:50:40.113Z,2.70
2022-09-04T01:53:14.689Z,2.07
2022-09-04T01:56:04.315Z,1.40
2022-09-04T01:58:42.717Z,1.57
2022-09-04T02:01:24.060Z,1.43
2022-09-04T02:04:00.443Z,1.87
2022-09-04T02:06:36.381Z,1.73
2022-09-04T02:09:18.772Z,2.23
2022-09-04T02:11:56.831Z,1.80
2022-09-04T02:14:36.598Z,2.03
2022-09-04T02:17:12.497Z,1.83
2022-09-04T02:20:08.371Z,1.43
2022-09-04T02:22:46.323Z,1.80
2022-09-04T02:25:25.894Z,1.97
2022-09-04T02:28:04.762Z,2.03
2022-09-04T02:30:43.380Z,1.70
2022-09-04T02:33:21.560Z,2.27
2022-09-04T02:35:56.344Z,2.60
2022-09-04T02:38:34.522Z,1.90
2022-09-04T02:41:11.591Z,1.70
2022-09-04T02:43:59.603Z,1.67
2022-09-04T02:46:39.954Z,2.10
2022-09-04T02:49:19.651Z,2.03
2022-09-04T02:52:08.089Z,2.10
2022-09-04T02:54:52.434Z,2.00
2022-09-04T02:57:34.483Z,2.20
2022-09-04T03:00:09.607Z,2.73
2022-09-04T03:02:46.357Z,3.10
2022-09-04T03:05:21.438Z,3.50
2022-09-04T03:08:03.319Z,4.13
2022-09-04T03:10:36.489Z,3.00
2022-09-04T03:13:13.992Z,3.03
2022-09-04T03:15:46.685Z,3.00
2022-09-04T03:18:25.301Z,4.63
2022-09-04T03:20:59.366Z,4.33
2022-09-04T03:23:40.202Z,4.10
2022-09-04T03:26:22.636Z,4.10
2022-09-04T03:29:02.735Z,5.80
2022-09-04T03:31:39.581Z,6.63
2022-09-04T03:34:33.051Z,6.00
2022-09-04T03:37:26.883Z,5.80
2022-09-04T03:40:14.045Z,6.73
2022-09-04T03:43:03.427Z,6.73
2022-09-04T03:45:43.120Z,5.27
2022-09-04T03:48:34.960Z,6.97
2022-09-04T03:51:17.163Z,7.00
2022-09-04T03:53:50.794Z,5.47
2022-09-04T03:56:49.773Z,7.37
2022-09-04T03:59:33.194Z,8.00
2022-09-04T04:02:11.047Z,7.10
2022-09-04T04:05:14.994Z,7.63
2022-09-04T04:07:54.672Z,7.60
2022-09-04T04:10:33.792Z,8.90
2022-09-04T04:13:36.962Z,8.70
2022-09-04T04:16:31.097Z,8.00
2022-09-04T04:19:16.803Z,7.83
2022-09-04T04:22:04.766Z,7.23
2022-09-04T04:25:06.789Z,9.80
2022-09-04T04:28:01.591Z,8.60
2022-09-04T04:30:35.145Z,8.47
2022-09-04T04:33:20.294Z,9.70
2022-09-04T04:35:57.889Z,7.97
2022-09-04T04:38:59.675Z,7.10
2022-09-04T04:42:07.598Z,6.57
2022-09-04T04:45:22.780Z,6.87
2022-09-04T04:48:38.394Z,7.57
2022-09-04T04:51:24.545Z,5.50
2022-09-04T04:53:59.751Z,5.60
2022-09-04T04:56:35.899Z,5.60
2022-09-04T04:59:20.582Z,5.40
2022-09-04T05:02:00.522Z,5.30
2022-09-04T05:04:42.872Z,5.33
2022-09-04T05:07:22.366Z,5.77
2022-09-04T05:09:58.140Z,5.50
2022-09-04T05:12:39.211Z,6.27
2022-09-04T05:15:19.179Z,5.90
2022-09-04T05:17:56.532Z,5.60
2022-09-04T05:20:42.252Z,5.80
2022-09-04T05:23:34.227Z,5.87
2022-09-04T05:26:13.223Z,6.30
2022-09-04T05:28:54.668Z,6.37
2022-09-04T05:31:38.954Z,6.00
2022-09-04T05:34:19.183Z,5.40
2022-09-04T05:37:01.375Z,6.43
2022-09-04T05:39:33.522Z,4.73
2022-09-04T05:42:33.158Z,4.70
2022-09-04T05:45:12.595Z,5.30
2022-09-04T05:47:56.817Z,5.67
2022-09-04T05:50:51.692Z,6.27
2022-09-04T05:54:04.379Z,6.30
2022-09-04T05:56:55.312Z,6.17
2022-09-04T05:59:43.972Z,6.57
2022-09-04T06:02:50.019Z,6.97
2022-09-04T06:05:29.020Z,17.50
2022-09-04T06:08:10.113Z,6.97
2022-09-04T06:11:00.085Z,6.10
2022-09-04T06:13:58.784Z,7.77
2022-09-04T06:17:05.643Z,6.30
2022-09-04T06:19:51.393Z,6.40
2022-09-04T06:23:04.448Z,6.00
2022-09-04T06:26:13.032Z,6.53
2022-09-04T06:29:22.296Z,6.57
2022-09-04T06:32:24.771Z,6.00
2022-09-04T06:35:16.440Z,7.00
2022-09-04T06:37:58.819Z,6.73
2022-09-04T06:40:45.949Z,5.73
2022-09-04T06:43:29.757Z,5.67
2022-09-04T06:46:11.281Z,5.80
2022-09-04T06:48:53.350Z,7.00
2022-09-04T06:51:48.661Z,8.20
2022-09-04T06:54:32.510Z,6.60
2022-09-04T06:57:35.302Z,6.80
2022-09-04T07:00:09.288Z,7.67
2022-09-04T07:03:09.079Z,8.03
2022-09-04T07:05:50.806Z,6.83
2022-09-04T07:08:39.562Z,7.33
2022-09-04T07:11:35.034Z,8.00
2022-09-04T07:14:39.033Z,6.90
2022-09-04T07:17:16.423Z,8.30
2022-09-04T07:20:07.436Z,6.97
2022-09-04T07:23:03.865Z,7.47
2022-09-04T07:25:45.390Z,7.27
2022-09-04T07:28:30.766Z,6.87
2022-09-04T07:31:05.908Z,7.70
2022-09-04T07:33:41.957Z,6.40
2022-09-04T07:36:17.003Z,8.20
2022-09-04T07:38:52.123Z,8.10
2022-09-04T07:41:28.242Z,8.30
2022-09-04T07:44:04.521Z,8.53
2022-09-04T07:46:41.435Z,8.50
2022-09-04T07:49:17.290Z,8.90
2022-09-04T07:51:49.732Z,7.87
2022-09-04T07:54:52.765Z,8.50
2022-09-04T07:58:12.856Z,7.40
2022-09-04T08:00:52.780Z,7.80
2022-09-04T08:03:38.068Z,7.93
2022-09-04T08:06:29.727Z,7.53
2022-09-04T08:09:23.691Z,7.53
2022-09-04T08:12:25.613Z,6.30
2022-09-04T08:15:15.724Z,7.27
2022-09-04T08:18:21.277Z,5.90
2022-09-04T08:21:02.550Z,7.23
2022-09-04T08:24:28.364Z,6.40
2022-09-04T08:27:13.821Z,6.87
2022-09-04T08:30:07.337Z,7.10
2022-09-04T08:33:00.765Z,5.53
2022-09-04T08:35:34.505Z,7.37
2022-09-04T08:38:36.542Z,6.20
2022-09-04T08:42:07.844Z,6.80
2022-09-04T08:45:16.358Z,7.67
2022-09-04T08:48:30.804Z,6.47
2022-09-04T08:52:06.498Z,7.57
2022-09-04T08:55:07.264Z,8.73
2022-09-04T08:58:24.324Z,6.40
2022-09-04T09:01:20.396Z,7.80
2022-09-04T09:04:49.679Z,6.90
2022-09-04T09:07:49.235Z,6.87
2022-09-04T09:10:56.603Z,7.80
2022-09-04T09:13:58.706Z,6.47
2022-09-04T09:16:44.144Z,6.30
2022-09-04T09:19:22.773Z,7.03
2022-09-04T09:22:11.331Z,6.93
2022-09-04T09:25:20.487Z,7.37
2022-09-04T09:28:33.637Z,7.27
2022-09-04T09:31:49.014Z,7.03
2022-09-04T09:35:18.738Z,6.73
2022-09-04T09:38:17.056Z,6.63
2022-09-04T09:41:33.662Z,5.97
2022-09-04T09:44:45.626Z,6.63
2022-09-04T09:47:46.276Z,6.47
2022-09-04T09:50:50.325Z,5.73
2022-09-04T09:54:05.186Z,6.20
2022-09-04T09:57:14.190Z,6.03
2022-09-04T10:00:10.346Z,5.37
2022-09-04T10:03:32.393Z,6.53
2022-09-04T10:06:57.202Z,5.20
2022-09-04T10:10:04.999Z,5.13
2022-09-04T10:13:07.398Z,5.37
2022-09-04T10:16:06.250Z,5.30
2022-09-04T10:19:16.453Z,7.07
2022-09-04T10:22:37.199Z,5.57
2022-09-04T10:25:38.746Z,5.23
2022-09-04T10:29:10.926Z,5.33
2022-09-04T10:32:35.842Z,4.13
2022-09-04T10:35:25.147Z,5.47
2022-09-04T10:38:30.421Z,4.80
2022-09-04T10:41:52.224Z,5.90
2022-09-04T10:44:45.945Z,6.10
2022-09-04T10:47:37.446Z,6.63
2022-09-04T10:50:26.763Z,5.50
2022-09-04T10:53:20.631Z,5.30
2022-09-04T10:56:16.175Z,4.27
2022-09-04T10:59:21.172Z,4.33
2022-09-04T11:02:35.840Z,4.83
2022-09-04T11:05:38.848Z,4.40
2022-09-04T11:08:40.191Z,3.83
2022-09-04T11:11:28.945Z,4.40
2022-09-04T11:14:21.363Z,3.13
2022-09-04T11:17:44.438Z,3.60
2022-09-04T11:20:52.201Z,4.43
2022-09-04T11:24:06.718Z,3.40
2022-09-04T11:27:19.882Z,4.57
2022-09-04T11:30:02.323Z,4.37
2022-09-04T11:33:06.612Z,3.63
2022-09-04T11:36:18.932Z,4.60
2022-09-04T11:39:43.417Z,3.60
2022-09-04T11:42:40.061Z,4.90
2022-09-04T11:45:42.005Z,4.63
2022-09-04T11:49:13.339Z,4.00
2022-09-04T11:52:04.998Z,4.00
2022-09-04T11:55:07.207Z,4.47
2022-09-04T11:58:04.645Z,4.07
2022-09-04T12:00:44.103Z,4.03
2022-09-04T12:03:53.159Z,3.33
2022-09-04T12:06:37.329Z,3.03
2022-09-04T12:10:02.362Z,3.20
2022-09-04T12:13:14.568Z,3.30
2022-09-04T12:16:27.223Z,3.17
2022-09-04T12:19:42.253Z,3.80
2022-09-04T12:22:44.566Z,3.47
2022-09-04T12:25:51.245Z,3.13
2022-09-04T12:28:59.641Z,4.07
2022-09-04T12:32:07.281Z,2.90
2022-09-04T12:35:31.628Z,3.40
2022-09-04T12:38:50.320Z,2.50
2022-09-04T12:41:21.365Z,2.83
2022-09-04T12:44:05.147Z,2.77
2022-09-04T12:46:56.833Z,2.77
2022-09-04T12:49:58.764Z,2.40
2022-09-04T12:52:46.516Z,3.00
2022-09-04T12:55:22.855Z,2.13
2022-09-04T12:58:07.765Z,2.43
2022-09-04T13:00:48.512Z,2.27
2022-09-04T13:03:30.503Z,2.60
2022-09-04T13:06:17.095Z,2.80
2022-09-04T13:09:08.235Z,2.80
2022-09-04T13:11:51.803Z,2.90
2022-09-04T13:14:45.567Z,1.90
2022-09-04T13:17:23.282Z,1.30
2022-09-04T13:20:01.510Z,1.30
2022-09-04T13:22:50.016Z,1.57
2022-09-04T13:25:31.522Z,1.60
2022-09-04T13:28:12.172Z,1.50
2022-09-04T13:30:57.158Z,1.40
2022-09-04T13:33:39.804Z,1.73
2022-09-04T13:36:25.776Z,2.23
2022-09-04T13:39:47.075Z,1.60
2022-09-04T13:43:04.849Z,1.10
2022-09-04T13:45:40.365Z,1.57
2022-09-04T13:48:15.503Z,1.60
2022-09-04T13:50:49.657Z,1.60
2022-09-04T13:53:24.942Z,1.67
2022-09-04T13:55:57.333Z,1.50
2022-09-04T13:58:31.167Z,1.60
2022-09-04T14:01:03.021Z,1.67
2022-09-04T14:03:46.068Z,1.37
2022-09-04T14:06:17.414Z,1.57
2022-09-04T14:09:05.054Z,1.57
2022-09-04T14:12:15.502Z,1.50
2022-09-04T14:15:28.627Z,1.63
2022-09-04T14:18:13.456Z,1.37
2022-09-04T14:20:57.967Z,1.60
2022-09-04T14:23:41.401Z,1.37
2022-09-04T14:26:25.307Z,1.90
2022-09-04T14:29:05.157Z,1.90
2022-09-04T14:31:46.697Z,1.40
2022-09-04T14:34:28.294Z,2.00
2022-09-04T14:37:08.161Z,1.40
2022-09-04T14:39:42.584Z,0.87
2022-09-04T14:42:33.525Z,1.23
2022-09-04T14:45:25.702Z,1.50
2022-09-04T14:47:57.403Z,1.30
2022-09-04T14:50:29.418Z,1.40
2022-09-04T14:53:03.614Z,1.50
2022-09-04T14:55:34.862Z,1.53
2022-09-04T14:58:11.827Z,1.40
2022-09-04T15:00:59.567Z,1.40
2022-09-04T15:03:34.942Z,1.30
2022-09-04T15:06:16.076Z,1.33
2022-09-04T15:08:46.364Z,1.10
2022-09-04T15:11:31.683Z,1.10
2022-09-04T15:14:06.044Z,1.00
2022-09-04T15:16:50.621Z,1.50
2022-09-04T15:19:37.167Z,1.20
2022-09-04T15:22:10.854Z,1.37
2022-09-04T15:24:54.327Z,1.50
2022-09-04T15:27:28.934Z,1.10
2022-09-04T15:30:06.930Z,1.07
2022-09-04T15:32:39.733Z,1.43
2022-09-04T15:35:15.339Z,1.27
2022-09-04T15:37:48.310Z,1.30
2022-09-04T15:40:30.597Z,1.40
2022-09-04T15:43:11.638Z,1.10
2022-09-04T15:45:47.506Z,1.40
2022-09-04T15:48:35.501Z,0.93
2022-09-04T15:51:16.066Z,1.07
2022-09-04T15:53:54.129Z,1.37
2022-09-04T15:56:37.006Z,1.20
2022-09-04T15:59:16.090Z,1.10
2022-09-04T16:01:51.755Z,1.30
2022-09-04T16:04:30.577Z,1.30
2022-09-04T16:07:20.486Z,1.50
2022-09-04T16:09:55.691Z,1.47
2022-09-04T16:12:30.666Z,1.10
2022-09-04T16:15:05.331Z,2.03
2022-09-04T16:17:43.593Z,1.13
2022-09-04T16:20:22.030Z,1.90
2022-09-04T16:22:58.884Z,1.40
2022-09-04T16:25:30.029Z,1.57
2022-09-04T16:28:08.098Z,1.47
2022-09-04T16:30:41.633Z,0.93
2022-09-04T16:33:27.785Z,0.93
2022-09-04T16:36:04.391Z,1.50
2022-09-04T16:38:47.364Z,1.50
2022-09-04T16:41:25.434Z,1.10
2022-09-04T16:44:25.659Z,1.23
2022-09-04T16:47:04.508Z,1.40
2022-09-04T16:49:41.122Z,1.37
2022-09-04T16:52:31.800Z,1.20
2022-09-04T16:55:09.991Z,1.20
2022-09-04T16:57:45.487Z,1.50
2022-09-04T17:00:17.656Z,1.73
2022-09-04T17:02:48.690Z,1.20
2022-09-04T17:05:28.062Z,1.60
2022-09-04T17:08:04.891Z,1.27
2022-09-04T17:10:42.314Z,1.30
2022-09-04T17:13:19.365Z,1.00
2022-09-04T17:15:58.756Z,1.10
2022-09-04T17:18:30.187Z,1.30
2022-09-04T17:26:04.860Z,1.60
2022-09-04T17:28:58.636Z,1.10
2022-09-04T17:29:15.420Z,1.37
2022-09-04T17:29:51.019Z,1.73
2022-09-04T17:33:39.555Z,1.30
2022-09-04T17:40:39.131Z,2.30
2022-09-04T17:40:46.391Z,1.73
2022-09-04T17:41:39.957Z,1.80
2022-09-04T17:44:32.586Z,1.60
2022-09-04T17:47:16.324Z,1.60
2022-09-04T17:49:50.614Z,1.67
2022-09-04T17:52:26.828Z,1.30
2022-09-04T17:54:59.517Z,1.27
2022-09-04T17:57:46.332Z,1.80
2022-09-04T18:00:21.335Z,1.57
2022-09-04T18:02:58.173Z,1.43
2022-09-04T18:05:34.652Z,1.90
2022-09-04T18:08:11.132Z,1.50
2022-09-04T18:10:53.548Z,1.50
2022-09-04T18:13:37.626Z,1.80
2022-09-04T18:16:34.231Z,1.70
2022-09-04T18:19:17.005Z,1.70
2022-09-04T18:22:07.769Z,1.70
2022-09-04T18:24:43.717Z,2.43
2022-09-04T18:27:18.365Z,1.90
2022-09-04T18:35:09.546Z,1.80
2022-09-04T18:37:19.632Z,1.90
2022-09-04T18:37:23.209Z,1.80
2022-09-04T18:39:09.212Z,1.87
2022-09-04T18:46:28.739Z,1.40
2022-09-04T18:50:29.132Z,1.80
2022-09-04T18:50:35.456Z,1.90
2022-09-04T18:51:14.628Z,1.97
2022-09-04T18:53:36.581Z,2.07
2022-09-04T18:56:20.279Z,1.53
2022-09-04T18:59:00.660Z,1.67
2022-09-04T19:01:41.528Z,1.87
2022-09-04T19:04:44.638Z,1.40
2022-09-04T19:07:27.357Z,1.30
2022-09-04T19:10:17.634Z,1.70
2022-09-04T19:13:05.041Z,1.90
2022-09-04T19:15:50.740Z,1.77
2022-09-04T19:18:27.371Z,1.87
2022-09-04T19:21:37.276Z,1.83
2022-09-04T19:24:21.167Z,2.00
2022-09-04T19:27:27.223Z,1.80
2022-09-04T19:30:18.506Z,2.20
2022-09-04T19:33:06.801Z,1.83
2022-09-04T19:35:43.586Z,2.00
2022-09-04T19:43:02.250Z,1.90
2022-09-04T19:46:06.999Z,2.30
2022-09-04T19:46:11.593Z,1.80
2022-09-04T19:47:28.678Z,2.00
2022-09-04T19:53:19.746Z,2.13
2022-09-04T19:53:30.162Z,2.50
2022-09-04T19:56:10.278Z,1.80
2022-09-04T19:58:44.190Z,1.80
2022-09-04T20:01:19.134Z,1.90
2022-09-04T20:03:51.950Z,2.00
2022-09-04T20:06:30.041Z,2.20
2022-09-04T20:09:08.738Z,2.40
2022-09-04T20:11:45.825Z,1.53
2022-09-04T20:14:22.910Z,2.00
2022-09-04T20:17:09.801Z,2.00
2022-09-04T20:19:44.832Z,2.43
2022-09-04T20:22:30.040Z,2.10
2022-09-04T20:25:29.185Z,2.20
2022-09-04T20:28:12.205Z,1.90
2022-09-04T20:30:47.830Z,2.20
2022-09-04T20:33:21.297Z,1.80
2022-09-04T20:35:59.723Z,2.27
2022-09-04T20:38:37.597Z,1.87
2022-09-04T20:41:20.106Z,2.00
2022-09-04T20:43:58.093Z,2.00
2022-09-04T20:52:42.529Z,2.10
2022-09-04T20:52:56.683Z,2.07
2022-09-04T20:53:12.211Z,1.90
2022-09-04T20:55:54.682Z,2.80
2022-09-04T21:03:05.923Z,2.20
2022-09-04T21:03:18.784Z,2.30
2022-09-04T21:04:47.529Z,2.63
2022-09-04T21:07:29.648Z,2.10
2022-09-04T21:10:14.444Z,2.27
2022-09-04T21:12:54.135Z,2.33
2022-09-04T21:15:51.515Z,2.17
2022-09-04T21:19:06.470Z,1.70
2022-09-04T21:22:08.230Z,1.93
2022-09-04T21:25:30.664Z,1.70
2022-09-04T21:28:28.242Z,2.53
2022-09-04T21:31:12.528Z,2.03
2022-09-04T21:33:50.669Z,2.40
2022-09-04T21:36:29.293Z,2.27
2022-09-04T21:39:57.699Z,2.13
2022-09-04T21:42:53.345Z,2.33
2022-09-04T21:45:38.483Z,2.00
2022-09-04T21:48:31.644Z,2.20
2022-09-04T21:51:28.938Z,2.00
2022-09-04T21:56:09.577Z,2.03
2022-09-04T22:02:31.399Z,2.00
2022-09-04T22:02:45.248Z,2.33
2022-09-04T22:04:18.530Z,2.20
2022-09-04T22:08:13.313Z,2.80
2022-09-04T22:13:35.299Z,1.83
2022-09-04T22:13:41.160Z,2.10
2022-09-04T22:16:13.467Z,1.90
2022-09-04T22:19:16.239Z,2.10
2022-09-04T22:22:03.891Z,2.03
2022-09-04T22:25:04.212Z,2.00
2022-09-04T22:28:09.246Z,1.80
2022-09-04T22:30:57.330Z,2.07
2022-09-04T22:34:15.023Z,1.87
2022-09-04T22:37:21.025Z,1.97
2022-09-04T22:40:13.460Z,2.30
2022-09-04T22:42:49.172Z,2.00
2022-09-04T22:45:45.366Z,2.20
2022-09-04T22:48:47.286Z,2.30
2022-09-04T22:51:52.616Z,1.90
2022-09-04T22:54:49.401Z,1.87
2022-09-04T22:57:25.038Z,2.10
2022-09-04T23:00:09.702Z,2.47
2022-09-04T23:03:08.915Z,2.10
2022-09-04T23:08:58.536Z,2.23
2022-09-04T23:13:54.054Z,2.30
2022-09-04T23:14:02.711Z,1.77
2022-09-04T23:15:53.928Z,1.97
2022-09-04T23:24:24.656Z,2.07
2022-09-04T23:26:43.387Z,2.10
2022-09-04T23:26:43.932Z,2.40
2022-09-04T23:28:23.563Z,2.23
2022-09-04T23:31:12.979Z,1.97
2022-09-04T23:34:36.929Z,1.90
2022-09-04T23:37:32.152Z,2.23
2022-09-04T23:40:36.708Z,1.90
2022-09-04T23:43:45.428Z,1.93
2022-09-04T23:46:50.597Z,2.50
2022-09-04T23:49:58.943Z,1.80
2022-09-04T23:56:31.453Z,2.00
2022-09-04T23:59:35.159Z,2.10
